Time;durP1;ratioP1;P1;durP2;ratioP2;P2;SDS_P1;SDS_P2;PMS_P1;PMS_P2;Temp;Humidity;BMP_temperature;BMP_pressure;BME280_temperature;BME280_humidity;BME280_pressure;Samples;Min_cycle;Max_cycle;Signal;HPM_P1;HPM_P2
2022/02/27 00:01:03;;;;;;;;;4.00;4.00;;;;;19.44;27.85;102139.19;5077429;28;45309;-52
2022/02/27 00:03:29;;;;;;;;;5.75;3.50;;;;;19.40;27.65;102142.84;5077706;27;45186;-52
2022/02/27 00:05:54;;;;;;;;;3.00;3.00;;;;;19.38;27.53;102137.59;5077196;27;45333;-54
2022/02/27 00:08:19;;;;;;;;;4.25;3.75;;;;;19.36;27.67;102136.78;5077012;28;49892;-54
2022/02/27 00:10:45;;;;;;;;;4.00;4.00;;;;;19.34;27.58;102130.72;5077348;27;45515;-56
2022/02/27 00:13:10;;;;;;;;;2.25;2.25;;;;;19.32;27.64;102140.41;5077530;28;45224;-55
2022/02/27 00:15:35;;;;;;;;;4.25;4.25;;;;;19.29;27.83;102135.25;5076967;27;45243;-54
2022/02/27 00:18:01;;;;;;;;;5.33;3.67;;;;;19.27;27.95;102126.53;5077234;27;50379;-54
2022/02/27 00:20:26;;;;;;;;;3.00;3.00;;;;;19.27;28.07;102131.78;5077488;27;45320;-55
2022/02/27 00:22:52;;;;;;;;;4.50;4.00;;;;;19.22;27.84;102131.94;5077356;27;45368;-55
2022/02/27 00:25:17;;;;;;;;;4.75;4.75;;;;;19.20;28.01;102138.16;5076994;27;45303;-55
2022/02/27 00:27:42;;;;;;;;;5.75;3.00;;;;;19.21;27.69;102137.25;5077000;27;45428;-55
2022/02/27 00:30:09;;;;;;;;;3.25;3.25;;;;;19.19;27.70;102133.78;5076981;27;45409;-55
2022/02/27 00:32:35;;;;;;;;;3.75;3.75;;;;;19.17;27.92;102131.22;5077204;27;45467;-53
2022/02/27 00:35:00;;;;;;;;;3.00;3.00;;;;;19.15;28.01;102139.13;5077057;27;46294;-54
2022/02/27 00:37:26;;;;;;;;;3.25;3.25;;;;;19.13;27.92;102140.94;5076877;27;45405;-56
2022/02/27 00:39:51;;;;;;;;;6.25;3.75;;;;;19.13;27.63;102140.94;5076912;27;45513;-54
2022/02/27 00:42:17;;;;;;;;;7.00;5.75;;;;;19.10;27.98;102134.91;5076919;27;45453;-55
2022/02/27 00:44:42;;;;;;;;;5.25;5.00;;;;;19.08;27.96;102126.19;5076743;27;46457;-56
2022/02/27 00:47:07;;;;;;;;;6.00;4.25;;;;;19.07;27.83;102130.63;5076874;27;45471;-53
2022/02/27 00:49:33;;;;;;;;;3.00;3.00;;;;;19.04;27.88;102120.19;5075803;27;45445;-54
2022/02/27 00:51:59;;;;;;;;;3.00;2.25;;;;;19.04;27.79;102127.22;5077288;27;45529;-55
2022/02/27 00:54:24;;;;;;;;;4.00;3.25;;;;;19.01;27.91;102128.19;5075331;27;46913;-54
2022/02/27 00:56:50;;;;;;;;;4.50;4.50;;;;;18.98;27.74;102130.88;5076781;27;45239;-54
2022/02/27 00:59:15;;;;;;;;;5.00;4.00;;;;;18.97;27.95;102140.50;5076779;27;45312;-53
2022/02/27 01:01:41;;;;;;;;;3.25;3.25;;;;;18.96;27.90;102145.81;5076797;27;45227;-56
2022/02/27 01:04:06;;;;;;;;;5.50;5.00;;;;;18.96;28.25;102145.81;5076511;27;46181;-51
2022/02/27 01:06:31;;;;;;;;;4.50;4.00;;;;;18.95;28.52;102146.72;5076970;27;45345;-54
2022/02/27 01:08:59;;;;;;;;;6.00;4.75;;;;;18.91;28.12;102139.78;5075384;27;45260;-54
2022/02/27 01:11:30;;;;;;;;;3.00;3.00;;;;;18.91;28.04;102137.16;5076940;27;45558;-54
2022/02/27 01:13:56;;;;;;;;;3.00;3.00;;;;;18.89;28.10;102131.94;5076620;27;45892;-55
2022/02/27 01:16:23;;;;;;;;;4.75;4.00;;;;;18.84;27.94;102129.47;5079997;27;45369;-54
2022/02/27 01:18:49;;;;;;;;;5.00;5.00;;;;;18.83;28.19;102135.63;5080094;27;45888;-55
2022/02/27 01:21:15;;;;;;;;;6.00;3.25;;;;;18.84;28.18;102137.34;5080234;28;45393;-55
2022/02/27 01:23:42;;;;;;;;;3.00;3.00;;;;;18.84;28.12;102133.88;5079910;27;46508;-55
2022/02/27 01:26:07;;;;;;;;;4.75;4.25;;;;;18.82;28.34;102119.91;5079967;28;45414;-55
2022/02/27 01:28:32;;;;;;;;;3.75;3.00;;;;;18.79;28.20;102114.72;5080459;27;45381;-55
2022/02/27 01:30:58;;;;;;;;;4.75;3.25;;;;;18.80;28.20;102112.03;5080172;27;45481;-56
2022/02/27 01:33:24;;;;;;;;;4.50;4.50;;;;;18.79;28.17;102117.34;5079702;27;45409;-54
2022/02/27 01:35:49;;;;;;;;;5.75;3.00;;;;;18.77;28.04;102108.66;5080215;27;45407;-54
2022/02/27 01:38:15;;;;;;;;;5.00;3.00;;;;;18.73;28.12;102102.63;5080042;27;45410;-53
2022/02/27 01:40:40;;;;;;;;;3.25;3.25;;;;;18.75;28.02;102111.31;5079971;27;45236;-55
2022/02/27 01:43:05;;;;;;;;;4.25;3.50;;;;;18.74;28.41;102114.84;5079629;27;46881;-54
2022/02/27 01:45:31;;;;;;;;;4.25;3.00;;;;;18.74;28.11;102112.22;5080044;27;45255;-55
2022/02/27 01:47:56;;;;;;;;;3.25;2.50;;;;;18.73;28.23;102105.25;5078411;27;45542;-55
2022/02/27 01:50:21;;;;;;;;;4.00;3.50;;;;;18.72;28.00;102108.78;5079795;27;45502;-54
2022/02/27 01:52:47;;;;;;;;;5.25;3.25;;;;;18.71;28.31;102109.69;5079405;27;45488;-55
2022/02/27 01:55:12;;;;;;;;;6.75;4.00;;;;;18.70;28.17;102108.84;5079539;27;45417;-52
2022/02/27 01:57:38;;;;;;;;;4.00;4.00;;;;;18.70;27.54;102107.94;5079631;27;45520;-53
2022/02/27 02:00:06;;;;;;;;;4.25;4.25;;;;;18.69;28.06;102111.47;5079931;27;45425;-55
2022/02/27 02:02:31;;;;;;;;;4.00;3.00;;;;;18.69;28.32;102108.84;5079343;27;45411;-54
2022/02/27 02:04:57;;;;;;;;;3.00;3.00;;;;;18.68;28.33;102112.41;5079288;27;45445;-54
2022/02/27 02:07:22;;;;;;;;;3.75;3.75;;;;;18.66;28.09;102103.72;5079595;27;45416;-56
2022/02/27 02:09:48;;;;;;;;;4.25;4.25;;;;;18.65;28.24;102102.81;5079535;27;45314;-54
2022/02/27 02:12:14;;;;;;;;;3.00;2.75;;;;;18.64;28.18;102105.50;5079051;27;46436;-54
2022/02/27 02:14:40;;;;;;;;;3.50;3.50;;;;;18.62;28.35;102099.44;5078931;27;45268;-52
2022/02/27 02:17:05;;;;;;;;;4.75;4.00;;;;;18.61;28.20;102101.22;5079508;27;45429;-55
2022/02/27 02:19:31;;;;;;;;;4.25;4.25;;;;;18.61;28.16;102105.59;5079257;27;45663;-50
2022/02/27 02:22:01;;;;;;;;;3.00;3.00;;;;;18.58;28.43;102097.78;5078826;27;45281;-52
2022/02/27 02:24:27;;;;;;;;;5.25;4.25;;;;;18.59;28.09;102096.88;5078850;27;45480;-53
2022/02/27 02:26:52;;;;;;;;;3.00;3.00;;;;;18.56;28.23;102097.81;5078873;27;45515;-49
2022/02/27 02:29:19;;;;;;;;;4.50;4.50;;;;;18.58;28.24;102090.78;5079206;27;45581;-52
2022/02/27 02:31:46;;;;;;;;;4.00;4.00;;;;;18.56;28.17;102086.47;5078798;27;46080;-53
2022/02/27 02:34:14;;;;;;;;;4.00;3.00;;;;;18.55;28.10;102085.59;5078874;28;45177;-54
2022/02/27 02:36:42;;;;;;;;;2.25;2.25;;;;;18.53;28.18;102077.78;5078909;27;45266;-54
2022/02/27 02:39:11;;;;;;;;;5.00;3.75;;;;;18.51;27.97;102076.94;5079370;27;45559;-51
2022/02/27 02:41:37;;;;;;;;;4.25;2.00;;;;;18.50;28.14;102074.38;5078964;27;46743;-53
2022/02/27 02:44:04;;;;;;;;;4.00;4.00;;;;;18.51;28.11;102076.09;5078580;27;45767;-54
2022/02/27 02:46:29;;;;;;;;;2.00;2.00;;;;;18.50;28.13;102077.84;5078828;27;45431;-50
2022/02/27 02:48:55;;;;;;;;;3.00;3.00;;;;;18.49;28.26;102078.75;5077634;28;45433;-54
2022/02/27 02:51:21;;;;;;;;;3.75;3.00;;;;;18.50;28.17;102074.38;5078421;28;46191;-56
2022/02/27 02:53:46;;;;;;;;;4.50;3.00;;;;;18.48;28.48;102082.28;5078544;27;45424;-54
2022/02/27 02:56:12;;;;;;;;;4.25;4.00;;;;;18.47;28.27;102085.81;5078607;27;45542;-50
2022/02/27 02:58:40;;;;;;;;;5.25;3.25;;;;;18.46;28.29;102081.47;5078871;27;45412;-55
2022/02/27 03:01:07;;;;;;;;;4.00;4.00;;;;;18.48;28.13;102084.91;5078466;27;46303;-53
2022/02/27 03:03:32;;;;;;;;;3.00;3.00;;;;;18.51;28.14;102076.94;5078371;27;45759;-53
2022/02/27 03:05:57;;;;;;;;;4.00;2.50;;;;;18.59;28.37;102083.75;5078487;27;45545;-55
2022/02/27 03:08:23;;;;;;;;;3.50;3.00;;;;;18.65;28.36;102088.84;5078464;27;45378;-50
2022/02/27 03:10:48;;;;;;;;;4.00;2.50;;;;;18.71;28.63;102078.16;5078223;27;46170;-54
2022/02/27 03:13:13;;;;;;;;;4.75;3.25;;;;;18.78;28.28;102079.72;5078062;27;45435;-53
2022/02/27 03:15:39;;;;;;;;;4.75;4.75;;;;;18.84;28.02;102076.91;5078450;27;45369;-54
2022/02/27 03:18:04;;;;;;;;;2.75;2.75;;;;;18.91;28.10;102081.97;5078430;27;45452;-51
2022/02/27 03:20:30;;;;;;;;;4.00;4.00;;;;;18.99;28.14;102070.38;5078029;27;45394;-54
2022/02/27 03:22:56;;;;;;;;;5.25;3.75;;;;;19.07;27.69;102071.94;5076650;27;45499;-55
2022/02/27 03:25:22;;;;;;;;;3.00;3.00;;;;;19.13;27.87;102077.00;5078188;27;45412;-48
2022/02/27 03:27:48;;;;;;;;;3.75;3.00;;;;;19.18;27.62;102067.25;5078183;27;45260;-53
2022/02/27 03:30:14;;;;;;;;;5.25;3.75;;;;;19.25;27.88;102067.88;5077841;27;46269;-53
2022/02/27 03:32:46;;;;;;;;;4.00;4.00;;;;;19.29;27.72;102065.13;5078246;27;45196;-55
2022/02/27 03:35:15;;;;;;;;;4.00;4.00;;;;;19.36;27.48;102067.56;5077869;27;45358;-52
2022/02/27 03:37:40;;;;;;;;;5.00;3.75;;;;;19.38;27.62;102065.75;5077720;28;45238;-51
2022/02/27 03:40:06;;;;;;;;;4.00;3.25;;;;;19.44;27.51;102065.56;5077883;27;45530;-53
2022/02/27 03:42:32;;;;;;;;;3.00;3.00;;;;;19.49;27.25;102065.41;5076375;27;45766;-55
2022/02/27 03:44:57;;;;;;;;;3.25;3.00;;;;;19.52;27.61;102067.97;5077984;27;45334;-54
2022/02/27 03:47:23;;;;;;;;;4.00;4.00;;;;;19.55;27.33;102073.97;5077894;27;45488;-54
2022/02/27 03:49:48;;;;;;;;;3.00;3.00;;;;;19.58;27.64;102076.53;5077588;27;45509;-49
2022/02/27 03:52:13;;;;;;;;;2.75;2.50;;;;;19.61;27.18;102080.81;5077633;27;45401;-51
2022/02/27 03:54:39;;;;;;;;;3.00;3.00;;;;;19.61;27.17;102071.16;5077971;27;45255;-52
2022/02/27 03:57:04;;;;;;;;;3.00;3.00;;;;;19.65;27.65;102079.81;5077830;27;45366;-52
2022/02/27 03:59:30;;;;;;;;;6.00;4.25;;;;;19.66;27.39;102088.56;5077402;28;45384;-54
2022/02/27 04:01:55;;;;;;;;;4.00;3.25;;;;;19.67;27.22;102091.16;5077400;27;45382;-54
2022/02/27 04:04:21;;;;;;;;;3.33;3.00;;;;;19.70;26.76;102093.66;5077469;27;45279;-52
2022/02/27 04:06:46;;;;;;;;;3.00;3.00;;;;;19.69;26.95;102088.47;5077787;28;45460;-50
2022/02/27 04:09:12;;;;;;;;;3.75;3.00;;;;;19.69;27.16;102084.06;5076263;27;47078;-54
2022/02/27 04:11:37;;;;;;;;;4.00;2.00;;;;;19.69;27.10;102091.94;5077497;27;45470;-53
2022/02/27 04:14:03;;;;;;;;;2.50;2.50;;;;;19.68;26.83;102084.97;5077457;27;45260;-51
2022/02/27 04:16:28;;;;;;;;;4.00;4.00;;;;;19.71;27.17;102090.13;5076254;27;45249;-54
2022/02/27 04:18:53;;;;;;;;;4.25;4.00;;;;;19.70;26.90;102083.16;5077046;27;45589;-50
2022/02/27 04:21:19;;;;;;;;;5.75;4.00;;;;;19.68;26.97;102081.47;5077092;27;45500;-54
2022/02/27 04:23:44;;;;;;;;;3.00;2.25;;;;;19.67;27.32;102077.13;5077181;27;45227;-51
2022/02/27 04:26:10;;;;;;;;;4.00;3.00;;;;;19.68;27.12;102081.47;5077560;27;45219;-53
2022/02/27 04:28:35;;;;;;;;;3.00;3.00;;;;;19.66;26.84;102078.03;5076979;27;45659;-53
2022/02/27 04:31:00;;;;;;;;;4.25;1.75;;;;;19.63;27.10;102084.25;5076769;27;49779;-52
2022/02/27 04:33:26;;;;;;;;;5.00;3.50;;;;;19.62;26.69;102077.28;5077168;27;45247;-50
2022/02/27 04:35:51;;;;;;;;;3.00;3.00;;;;;19.59;27.01;102080.00;5077182;27;45604;-54
2022/02/27 04:38:16;;;;;;;;;2.50;2.50;;;;;19.57;27.15;102079.19;5076700;27;46454;-51
2022/02/27 04:40:42;;;;;;;;;3.00;3.00;;;;;19.56;27.12;102077.47;5075639;28;45312;-51
2022/02/27 04:43:07;;;;;;;;;5.25;3.00;;;;;19.53;27.23;102078.41;5076834;27;45227;-53
2022/02/27 04:45:32;;;;;;;;;1.25;1.25;;;;;19.51;26.98;102072.38;5077182;27;45309;-49
2022/02/27 04:47:58;;;;;;;;;4.75;3.25;;;;;19.50;26.96;102075.03;5076547;27;46184;-53
2022/02/27 04:50:24;;;;;;;;;2.75;2.75;;;;;19.51;27.11;102071.50;5075572;27;45382;-54
2022/02/27 04:52:49;;;;;;;;;2.00;2.00;;;;;19.49;27.44;102073.31;5076798;28;45327;-51
2022/02/27 04:55:14;;;;;;;;;4.25;3.00;;;;;19.47;27.25;102070.72;5077284;27;45586;-53
2022/02/27 04:57:40;;;;;;;;;2.50;2.50;;;;;19.43;27.63;102069.97;5076709;27;46517;-52
2022/02/27 05:00:07;;;;;;;;;1.50;1.50;;;;;19.40;27.53;102064.81;5076675;28;45436;-51
2022/02/27 05:02:33;;;;;;;;;2.25;2.00;;;;;19.37;27.56;102061.41;5076464;27;45492;-53
2022/02/27 05:04:59;;;;;;;;;2.00;2.00;;;;;19.34;27.31;102067.63;5076836;27;45252;-53
2022/02/27 05:07:24;;;;;;;;;2.50;2.50;;;;;19.32;27.45;102066.81;5076481;27;45277;-50
2022/02/27 05:09:49;;;;;;;;;1.75;1.75;;;;;19.29;27.42;102072.16;5075043;27;45319;-54
2022/02/27 05:12:15;;;;;;;;;2.75;2.75;;;;;19.26;27.29;102066.97;5076987;27;45353;-52
2022/02/27 05:14:40;;;;;;;;;8.75;2.00;;;;;19.22;27.57;102068.84;5076564;27;45571;-52
2022/02/27 05:17:05;;;;;;;;;2.00;2.00;;;;;19.22;27.17;102066.22;5076355;27;45993;-54
2022/02/27 05:19:31;;;;;;;;;2.75;2.75;;;;;19.20;27.49;102075.91;5075165;28;45322;-52
2022/02/27 05:21:56;;;;;;;;;2.50;2.50;;;;;19.17;27.36;102068.16;5076513;27;45230;-53
2022/02/27 05:24:21;;;;;;;;;2.75;2.25;;;;;19.12;27.14;102068.28;5076433;27;45453;-51
2022/02/27 05:26:47;;;;;;;;;5.00;3.25;;;;;19.08;27.42;102066.63;5076120;28;46672;-49
2022/02/27 05:29:12;;;;;;;;;2.50;2.00;;;;;19.09;27.58;102070.13;5075290;28;45412;-54
2022/02/27 05:31:39;;;;;;;;;4.50;4.00;;;;;19.06;27.23;102065.81;5076412;27;45410;-51
2022/02/27 05:34:05;;;;;;;;;4.25;3.25;;;;;19.04;27.12;102067.63;5076418;27;45487;-53
2022/02/27 05:36:31;;;;;;;;;4.25;2.00;;;;;19.02;27.29;102064.19;5076118;27;46299;-53
2022/02/27 05:38:56;;;;;;;;;2.00;2.00;;;;;19.00;27.40;102063.38;5076037;27;45491;-53
2022/02/27 05:41:22;;;;;;;;;4.00;4.00;;;;;18.97;27.64;102055.59;5076218;27;45264;-53
2022/02/27 05:43:47;;;;;;;;;3.00;3.00;;;;;18.94;27.48;102058.28;5076509;27;45607;-52
2022/02/27 05:46:13;;;;;;;;;3.50;3.50;;;;;18.95;27.40;102066.16;5076415;27;46079;-53
2022/02/27 05:48:38;;;;;;;;;5.00;3.00;;;;;18.93;27.51;102057.44;5075947;27;45346;-54
2022/02/27 05:51:03;;;;;;;;;2.25;2.25;;;;;18.92;27.64;102052.19;5076184;27;45323;-52
2022/02/27 05:53:29;;;;;;;;;2.75;2.75;;;;;18.87;27.41;102054.09;5076253;27;45687;-54
2022/02/27 05:55:57;;;;;;;;;4.50;4.50;;;;;18.87;27.59;102054.09;5075800;27;45381;-53
2022/02/27 05:58:24;;;;;;;;;4.00;3.00;;;;;18.84;27.39;102045.41;5075884;27;45348;-50
2022/02/27 06:00:50;;;;;;;;;4.00;4.00;;;;;18.84;27.73;102058.53;5077343;27;45318;-56
2022/02/27 06:03:16;;;;;;;;;5.00;2.00;;;;;18.81;27.41;102050.72;5079936;27;45403;-54
2022/02/27 06:05:42;;;;;;;;;2.00;2.00;;;;;18.81;27.69;102048.09;5079133;27;46159;-52
2022/02/27 06:08:08;;;;;;;;;3.00;2.50;;;;;18.78;27.56;102050.84;5078190;28;45761;-55
2022/02/27 06:10:34;;;;;;;;;2.25;2.25;;;;;18.78;27.35;102048.22;5079388;27;45454;-56
2022/02/27 06:12:59;;;;;;;;;3.50;2.00;;;;;18.75;27.31;102045.66;5079440;27;45524;-53
2022/02/27 06:15:24;;;;;;;;;2.50;2.50;;;;;18.75;27.36;102050.03;5078857;27;46099;-54
2022/02/27 06:17:50;;;;;;;;;4.25;3.25;;;;;18.74;27.51;102059.69;5079162;27;45354;-54
2022/02/27 06:20:15;;;;;;;;;4.00;4.00;;;;;18.74;27.67;102053.59;5079425;27;45365;-55
2022/02/27 06:22:46;;;;;;;;;2.25;2.25;;;;;18.71;27.39;102051.91;5094942;27;45371;-52
2022/02/27 06:25:12;;;;;;;;;2.50;2.25;;;;;18.66;27.41;102057.28;5077513;27;45999;-53
2022/02/27 06:27:42;;;;;;;;;2.50;2.00;;;;;18.68;27.37;102054.63;5078992;27;45809;-53
2022/02/27 06:30:10;;;;;;;;;2.00;2.00;;;;;18.66;27.41;102062.53;5079081;27;45238;-54
2022/02/27 06:32:36;;;;;;;;;3.75;3.00;;;;;18.64;27.52;102061.72;5079060;27;45489;-52
2022/02/27 06:35:02;;;;;;;;;5.50;2.75;;;;;18.65;27.60;102059.97;5078678;27;46075;-51
2022/02/27 06:37:27;;;;;;;;;3.00;2.75;;;;;18.63;27.35;102064.38;5077531;27;46060;-51
2022/02/27 06:39:53;;;;;;;;;1.75;1.75;;;;;18.63;27.68;102061.75;5078836;28;45310;-55
2022/02/27 06:42:18;;;;;;;;;3.75;3.00;;;;;18.61;27.47;102063.56;5079415;27;45274;-54
2022/02/27 06:44:44;;;;;;;;;2.00;2.00;;;;;18.60;27.45;102062.72;5078611;27;45326;-55
2022/02/27 06:47:09;;;;;;;;;3.25;3.00;;;;;18.59;27.34;102055.75;5078568;27;48954;-54
2022/02/27 06:49:35;;;;;;;;;3.50;3.50;;;;;18.56;27.56;102050.56;5078838;27;45427;-53
2022/02/27 06:52:00;;;;;;;;;5.00;4.00;;;;;18.60;27.45;102057.47;5078648;27;45227;-51
2022/02/27 06:54:26;;;;;;;;;4.25;2.50;;;;;18.61;27.42;102046.06;5078462;27;45274;-53
2022/02/27 06:56:51;;;;;;;;;3.25;3.00;;;;;18.68;27.36;102058.09;5078417;27;45213;-51
2022/02/27 06:59:16;;;;;;;;;2.50;2.00;;;;;18.75;27.34;102050.03;5078962;27;45274;-53
2022/02/27 07:01:43;;;;;;;;;2.00;2.00;;;;;18.81;27.18;102047.25;5078626;27;45513;-55
2022/02/27 07:04:09;;;;;;;;;2.25;2.25;;;;;18.87;27.30;102049.69;5078226;27;46142;-52
2022/02/27 07:06:35;;;;;;;;;3.00;2.75;;;;;18.94;27.24;102050.41;5078300;27;45376;-53
2022/02/27 07:09:00;;;;;;;;;2.25;2.25;;;;;18.99;27.30;102045.91;5078414;27;45392;-53
2022/02/27 07:11:26;;;;;;;;;4.00;3.00;;;;;19.08;27.21;102055.25;5078170;27;45666;-53
2022/02/27 07:13:51;;;;;;;;;3.50;3.00;;;;;19.14;27.33;102052.47;5077588;27;45976;-54
2022/02/27 07:16:22;;;;;;;;;4.25;3.00;;;;;19.19;27.23;102055.78;5078252;27;45439;-54
2022/02/27 07:18:47;;;;;;;;;2.25;2.00;;;;;19.26;27.12;102048.59;5078448;27;45165;-54
2022/02/27 07:21:13;;;;;;;;;2.25;2.25;;;;;19.31;27.08;102044.91;5078264;27;45619;-54
2022/02/27 07:23:38;;;;;;;;;2.00;2.00;;;;;19.37;27.20;102058.78;5093694;27;46389;-52
2022/02/27 07:26:03;;;;;;;;;2.50;2.50;;;;;19.41;26.69;102049.88;5077997;27;45431;-55
2022/02/27 07:28:29;;;;;;;;;3.25;2.75;;;;;19.47;26.64;102053.19;5078114;27;45394;-54
2022/02/27 07:30:54;;;;;;;;;2.75;2.75;;;;;19.51;26.89;102047.81;5076904;27;45355;-53
2022/02/27 07:33:19;;;;;;;;;3.00;3.00;;;;;19.56;26.41;102051.19;5078029;27;45899;-53
2022/02/27 07:35:45;;;;;;;;;2.00;2.00;;;;;19.58;26.58;102052.84;5077771;27;45388;-53
2022/02/27 07:38:10;;;;;;;;;2.00;2.00;;;;;19.62;26.58;102057.09;5077879;27;45310;-53
2022/02/27 07:40:35;;;;;;;;;3.00;3.00;;;;;19.64;26.80;102046.53;5078181;27;45382;-54
2022/02/27 07:43:01;;;;;;;;;4.25;2.00;;;;;19.70;26.74;102046.31;5075968;27;52072;-54
2022/02/27 07:45:26;;;;;;;;;2.00;2.00;;;;;19.74;26.60;102057.59;5077779;27;45326;-53
2022/02/27 07:47:51;;;;;;;;;2.00;2.00;;;;;19.76;26.83;102056.66;5078050;27;45294;-53
2022/02/27 07:50:17;;;;;;;;;2.50;2.50;;;;;19.78;26.72;102065.38;5076528;28;45393;-51
2022/02/27 07:52:42;;;;;;;;;1.50;1.50;;;;;19.78;26.39;102057.47;5077400;27;45363;-53
2022/02/27 07:55:08;;;;;;;;;2.00;2.00;;;;;19.82;26.84;102066.13;5077524;27;45413;-52
2022/02/27 07:57:33;;;;;;;;;2.25;2.00;;;;;19.82;26.42;102059.97;5077711;27;45319;-52
2022/02/27 07:59:59;;;;;;;;;3.00;3.00;;;;;19.84;26.11;102066.06;5077819;27;45224;-53
2022/02/27 08:02:24;;;;;;;;;3.25;1.75;;;;;19.84;26.13;102063.44;5077265;27;46119;-49
2022/02/27 08:04:49;;;;;;;;;2.50;2.50;;;;;19.84;26.15;102061.69;5077758;27;45222;-53
2022/02/27 08:07:15;;;;;;;;;3.50;2.25;;;;;19.84;25.95;102064.31;5077611;27;45243;-51
2022/02/27 08:09:40;;;;;;;;;3.00;1.75;;;;;19.83;26.09;102062.59;5093470;27;45507;-52
2022/02/27 08:12:06;;;;;;;;;2.50;2.50;;;;;19.84;26.30;102066.06;5077200;27;46063;-54
2022/02/27 08:14:31;;;;;;;;;1.00;1.00;;;;;19.83;26.18;102075.75;5077167;27;45282;-52
2022/02/27 08:16:57;;;;;;;;;4.75;4.00;;;;;19.82;25.95;102074.00;5077300;27;45257;-52
2022/02/27 08:19:22;;;;;;;;;3.00;3.00;;;;;19.81;26.33;102074.03;5077702;27;45326;-54
2022/02/27 08:21:47;;;;;;;;;3.00;3.00;;;;;19.76;26.18;102071.56;5076951;27;45259;-52
2022/02/27 08:24:13;;;;;;;;;4.00;4.00;;;;;19.76;26.28;102076.81;5076742;27;45226;-52
2022/02/27 08:26:39;;;;;;;;;5.00;2.00;;;;;19.73;26.14;102071.69;5077072;27;45390;-53
2022/02/27 08:29:06;;;;;;;;;1.25;1.25;;;;;19.72;25.73;102072.59;5077244;27;45476;-54
2022/02/27 08:31:32;;;;;;;;;3.00;3.00;;;;;19.69;25.96;102070.06;5076965;27;46206;-52
2022/02/27 08:33:58;;;;;;;;;4.75;2.25;;;;;19.68;26.04;102084.97;5077010;27;45853;-54
2022/02/27 08:36:23;;;;;;;;;3.00;3.00;;;;;19.66;26.39;102080.66;5076148;28;45371;-55
2022/02/27 08:38:49;;;;;;;;;2.00;2.00;;;;;19.65;26.25;102081.56;5077182;27;45579;-54
2022/02/27 08:41:14;;;;;;;;;3.25;2.00;;;;;19.63;26.12;102087.75;5075437;28;46123;-54
2022/02/27 08:43:40;;;;;;;;;4.25;3.00;;;;;19.60;26.09;102085.22;5076691;27;45232;-51
2022/02/27 08:46:05;;;;;;;;;2.00;2.00;;;;;19.61;26.31;102086.06;5076968;27;45366;-55
2022/02/27 08:48:31;;;;;;;;;2.50;2.25;;;;;19.60;26.21;102082.59;5077046;27;45466;-54
2022/02/27 08:50:56;;;;;;;;;4.50;2.00;;;;;19.58;26.06;102088.78;5076399;27;52784;-56
2022/02/27 08:53:22;;;;;;;;;3.25;3.00;;;;;19.57;26.01;102076.53;5077005;27;45342;-53
2022/02/27 08:55:47;;;;;;;;;3.00;3.00;;;;;19.53;26.21;102072.31;5076809;27;45295;-54
2022/02/27 08:58:12;;;;;;;;;3.00;3.00;;;;;19.53;26.20;102083.69;5076871;27;45646;-54
2022/02/27 09:00:38;;;;;;;;;2.25;2.25;;;;;19.50;26.18;102085.53;5076573;27;45882;-54
2022/02/27 09:03:04;;;;;;;;;2.50;2.50;;;;;19.44;26.17;102081.34;5076449;27;45428;-50
2022/02/27 09:05:30;;;;;;;;;4.50;3.50;;;;;19.45;26.23;102083.94;5076517;27;45360;-49
2022/02/27 09:07:55;;;;;;;;;2.00;2.00;;;;;19.43;26.18;102096.28;5077168;27;45567;-52
2022/02/27 09:10:21;;;;;;;;;6.00;2.50;;;;;19.42;26.42;102093.66;5076733;27;46979;-54
2022/02/27 09:12:47;;;;;;;;;1.50;1.50;;;;;19.39;26.38;102102.50;5076496;27;45802;-52
2022/02/27 09:15:14;;;;;;;;;2.75;1.00;;;;;19.38;26.61;102099.94;5076443;27;45433;-53
2022/02/27 09:17:40;;;;;;;;;2.50;2.50;;;;;19.35;26.38;102102.66;5076575;27;45331;-53
2022/02/27 09:20:07;;;;;;;;;2.00;2.00;;;;;19.34;26.23;102109.69;5076128;28;45406;-55
2022/02/27 09:22:32;;;;;;;;;2.00;2.00;;;;;19.33;26.27;102105.34;5074778;27;45326;-53
2022/02/27 09:24:58;;;;;;;;;2.00;1.00;;;;;19.32;26.21;102103.63;5076439;27;45269;-53
2022/02/27 09:27:23;;;;;;;;;3.75;3.00;;;;;19.30;26.16;102105.44;5076723;27;45475;-52
2022/02/27 09:29:48;;;;;;;;;2.00;2.00;;;;;19.29;26.48;102098.44;5076017;27;46094;-53
2022/02/27 09:32:14;;;;;;;;;1.50;1.50;;;;;19.27;26.42;102084.47;5076180;27;45446;-52
2022/02/27 09:34:39;;;;;;;;;2.00;0.50;;;;;19.27;26.32;102097.63;5076174;27;45463;-51
2022/02/27 09:37:05;;;;;;;;;2.25;1.25;;;;;19.25;26.44;102091.53;5079770;27;45432;-54
2022/02/27 09:39:31;;;;;;;;;1.75;1.75;;;;;19.25;26.48;102086.28;5079637;27;45320;-54
2022/02/27 09:41:57;;;;;;;;;2.00;2.00;;;;;19.22;26.47;102086.41;5079949;27;45314;-56
2022/02/27 09:44:23;;;;;;;;;2.50;1.75;;;;;19.24;26.17;102095.06;5080176;27;45926;-51
2022/02/27 09:46:49;;;;;;;;;3.00;3.00;;;;;19.21;25.93;102090.78;5079901;27;45358;-53
2022/02/27 09:49:15;;;;;;;;;4.00;2.75;;;;;19.20;26.08;102088.22;5079366;27;46070;-51
2022/02/27 09:51:40;;;;;;;;;1.50;1.00;;;;;19.19;26.48;102087.34;5079568;27;45382;-49
2022/02/27 09:54:06;;;;;;;;;2.00;2.00;;;;;19.17;26.00;102091.78;5079643;28;45397;-53
2022/02/27 09:56:31;;;;;;;;;2.00;2.00;;;;;19.18;26.37;102085.63;5079777;27;45173;-53
2022/02/27 09:58:57;;;;;;;;;2.75;2.25;;;;;19.16;26.35;102087.44;5078317;27;45867;-51
2022/02/27 10:01:23;;;;;;;;;2.00;2.00;;;;;19.14;26.28;102084.84;5079400;27;45436;-54
2022/02/27 10:03:48;;;;;;;;;2.25;2.00;;;;;19.15;26.03;102088.34;5079475;27;45381;-51
2022/02/27 10:06:18;;;;;;;;;2.00;2.00;;;;;19.12;26.21;102083.19;5079574;27;45540;-54
2022/02/27 10:08:47;;;;;;;;;2.00;2.00;;;;;19.13;26.07;102083.13;5078005;28;47156;-55
2022/02/27 10:11:20;;;;;;;;;2.00;2.00;;;;;19.10;26.00;102072.72;5079160;27;45867;-52
2022/02/27 10:13:50;;;;;;;;;3.00;3.00;;;;;19.10;26.23;102083.22;5079287;27;45274;-56
2022/02/27 10:16:20;;;;;;;;;2.00;2.00;;;;;19.09;25.95;102086.75;5079265;27;45529;-51
2022/02/27 10:18:46;;;;;;;;;2.00;2.00;;;;;19.06;25.91;102086.84;5078962;27;46106;-52
2022/02/27 10:21:28;;;;;;;;;2.00;2.00;;;;;19.07;25.91;102083.31;5078924;27;45938;-52
2022/02/27 10:24:04;;;;;;;;;4.00;2.25;;;;;19.07;25.96;102074.59;5079120;27;45293;-54
2022/02/27 10:26:32;;;;;;;;;2.25;2.00;;;;;19.07;26.20;102082.47;5079692;27;45267;-49
2022/02/27 10:29:11;;;;;;;;;3.00;1.75;;;;;19.04;26.13;102077.28;5079168;27;45417;-51
2022/02/27 10:31:43;;;;;;;;;2.25;2.00;;;;;19.04;25.87;102083.38;5094541;27;45413;-54
2022/02/27 10:34:22;;;;;;;;;1.25;1.25;;;;;19.04;25.99;102080.75;5078925;27;45319;-54
2022/02/27 10:36:57;;;;;;;;;1.25;1.25;;;;;19.02;26.13;102073.84;5079143;27;45412;-55
2022/02/27 10:39:59;;;;;;;;;1.25;1.00;;;;;19.00;25.96;102081.78;5078626;27;45446;-56
2022/02/27 10:42:27;;;;;;;;;1.75;1.75;;;;;19.00;25.88;102087.03;5036030;28;45442;-54
2022/02/27 10:44:54;;;;;;;;;3.25;3.00;;;;;19.00;26.07;102087.03;5070696;27;45323;-51
2022/02/27 10:47:30;;;;;;;;;2.75;2.75;;;;;19.01;26.06;102088.75;5078817;27;45404;-56
2022/02/27 10:49:57;;;;;;;;;2.00;2.00;;;;;18.99;26.19;102082.69;5078299;27;46212;-55
2022/02/27 10:52:30;;;;;;;;;1.25;1.00;;;;;18.98;26.04;102079.19;5078525;28;45743;-56
2022/02/27 10:54:59;;;;;;;;;2.00;2.00;;;;;18.94;26.02;102072.31;5078770;27;45407;-52
2022/02/27 10:57:34;;;;;;;;;2.00;2.00;;;;;18.96;26.00;102074.88;5078785;27;45607;-54
2022/02/27 11:00:02;;;;;;;;;3.00;3.00;;;;;18.96;26.04;102074.88;5078617;28;46043;-55
2022/02/27 11:02:29;;;;;;;;;2.50;2.50;;;;;18.94;26.21;102074.06;5078688;28;45749;-53
2022/02/27 11:04:57;;;;;;;;;1.00;1.00;;;;;18.92;25.97;102079.34;5078343;27;45307;-53
2022/02/27 11:07:22;;;;;;;;;3.50;1.75;;;;;18.91;26.17;102076.72;5077327;27;45240;-53
2022/02/27 11:09:49;;;;;;;;;1.25;1.25;;;;;18.92;26.04;102073.19;5078161;27;46192;-51
2022/02/27 11:12:15;;;;;;;;;2.50;2.50;;;;;18.90;26.40;102085.53;5078190;27;45846;-51
2022/02/27 11:14:42;;;;;;;;;2.00;2.00;;;;;18.91;25.97;102089.88;5078060;27;45449;-52
2022/02/27 11:17:10;;;;;;;;;3.25;2.00;;;;;18.89;25.96;102081.19;5077082;27;45503;-52
2022/02/27 11:19:37;;;;;;;;;2.25;1.00;;;;;18.88;26.24;102079.47;5078009;27;45255;-51